sensor_id;sensor_type;location;lat;lon;timestamp;pressure;altitude;pressure_sealevel;temperature;humidity
75868;BME280;64515;51.446;7.578;2022-10-31T00:01:01;100783.91;;;21.33;59.21
75868;BME280;64515;51.446;7.578;2022-10-31T00:03:26;100784.88;;;21.32;59.23
75868;BME280;64515;51.446;7.578;2022-10-31T00:05:52;100776.91;;;21.29;59.31
75868;BME280;64515;51.446;7.578;2022-10-31T00:08:17;100785.06;;;21.29;59.37
75868;BME280;64515;51.446;7.578;2022-10-31T00:10:43;100789.66;;;21.28;59.43
75868;BME280;64515;51.446;7.578;2022-10-31T00:13:09;100791.53;;;21.28;59.43
75868;BME280;64515;51.446;7.578;2022-10-31T00:15:35;100789.78;;;21.27;59.57
75868;BME280;64515;51.446;7.578;2022-10-31T00:18:00;100788.88;;;21.26;59.52
75868;BME280;64515;51.446;7.578;2022-10-31T00:20:26;100794.31;;;21.26;59.43
75868;BME280;64515;51.446;7.578;2022-10-31T00:22:51;100791.72;;;21.25;59.50
75868;BME280;64515;51.446;7.578;2022-10-31T00:25:16;100790.84;;;21.24;59.49
75868;BME280;64515;51.446;7.578;2022-10-31T00:27:41;100790.75;;;21.26;59.51
75868;BME280;64515;51.446;7.578;2022-10-31T00:30:07;100791.81;;;21.23;59.52
75868;BME280;64515;51.446;7.578;2022-10-31T00:32:32;100787.34;;;21.22;59.52
75868;BME280;64515;51.446;7.578;2022-10-31T00:34:57;100792.78;;;21.22;59.59
75868;BME280;64515;51.446;7.578;2022-10-31T00:37:22;100795.50;;;21.22;59.47
75868;BME280;64515;51.446;7.578;2022-10-31T00:39:47;100786.44;;;21.22;59.63
75868;BME280;64515;51.446;7.578;2022-10-31T00:42:14;100790.16;;;21.21;59.61
75868;BME280;64515;51.446;7.578;2022-10-31T00:44:39;100792.91;;;21.21;59.52
75868;BME280;64515;51.446;7.578;2022-10-31T00:47:04;100794.72;;;21.20;59.55
75868;BME280;64515;51.446;7.578;2022-10-31T00:49:29;100790.34;;;21.18;59.54
75868;BME280;64515;51.446;7.578;2022-10-31T00:51:55;100787.84;;;21.14;59.69
75868;BME280;64515;51.446;7.578;2022-10-31T00:54:20;100790.59;;;21.14;59.76
75868;BME280;64515;51.446;7.578;2022-10-31T00:56:45;100785.13;;;21.14;59.76
75868;BME280;64515;51.446;7.578;2022-10-31T00:59:10;100791.44;;;21.15;59.77
75868;BME280;64515;51.446;7.578;2022-10-31T01:01:35;100785.13;;;21.14;59.75
75868;BME280;64515;51.446;7.578;2022-10-31T01:04:00;100787.84;;;21.14;59.73
75868;BME280;64515;51.446;7.578;2022-10-31T01:06:25;100786.09;;;21.13;59.75
75868;BME280;64515;51.446;7.578;2022-10-31T01:08:51;100797.06;;;21.12;59.86
75868;BME280;64515;51.446;7.578;2022-10-31T01:11:17;100787.19;;;21.11;59.81
75868;BME280;64515;51.446;7.578;2022-10-31T01:13:43;100789.00;;;21.10;59.75
75868;BME280;64515;51.446;7.578;2022-10-31T01:16:16;100790.75;;;21.11;59.72
75868;BME280;64515;51.446;7.578;2022-10-31T01:18:41;100787.25;;;21.09;59.97
75868;BME280;64515;51.446;7.578;2022-10-31T01:21:12;100797.28;;;21.09;59.85
75868;BME280;64515;51.446;7.578;2022-10-31T01:23:37;100787.25;;;21.09;59.85
75868;BME280;64515;51.446;7.578;2022-10-31T01:26:04;100794.66;;;21.07;59.96
75868;BME280;64515;51.446;7.578;2022-10-31T01:28:30;100799.22;;;21.07;59.87
75868;BME280;64515;51.446;7.578;2022-10-31T01:30:55;100799.31;;;21.05;59.88
75868;BME280;64515;51.446;7.578;2022-10-31T01:33:20;100804.53;;;21.08;59.92
75868;BME280;64515;51.446;7.578;2022-10-31T01:35:45;100796.38;;;21.08;59.86
75868;BME280;64515;51.446;7.578;2022-10-31T01:38:10;100794.66;;;21.07;59.87
75868;BME280;64515;51.446;7.578;2022-10-31T01:40:36;100789.22;;;21.07;59.82
75868;BME280;64515;51.446;7.578;2022-10-31T01:43:01;100801.81;;;21.08;59.79
75868;BME280;64515;51.446;7.578;2022-10-31T01:45:26;100792.91;;;21.06;59.83
75868;BME280;64515;51.446;7.578;2022-10-31T01:47:51;100800.09;;;21.07;59.81
75868;BME280;64515;51.446;7.578;2022-10-31T01:50:35;100814.66;;;21.06;59.90
75868;BME280;64515;51.446;7.578;2022-10-31T01:53:02;100812.69;;;21.08;59.81
75868;BME280;64515;51.446;7.578;2022-10-31T01:55:35;100817.38;;;21.06;59.88
75868;BME280;64515;51.446;7.578;2022-10-31T01:58:13;100820.84;;;21.08;59.83
75868;BME280;64515;51.446;7.578;2022-10-31T02:00:39;100822.72;;;21.08;59.83
75868;BME280;64515;51.446;7.578;2022-10-31T02:03:06;100829.00;;;21.08;59.91
75868;BME280;64515;51.446;7.578;2022-10-31T02:05:31;100827.47;;;21.04;59.91
75868;BME280;64515;51.446;7.578;2022-10-31T02:08:08;100823.00;;;21.03;59.95
75868;BME280;64515;51.446;7.578;2022-10-31T02:10:37;100808.34;;;21.06;59.84
75868;BME280;64515;51.446;7.578;2022-10-31T02:13:04;100809.22;;;21.06;59.88
75868;BME280;64515;51.446;7.578;2022-10-31T02:15:29;100793.78;;;21.07;59.81
75868;BME280;64515;51.446;7.578;2022-10-31T02:17:55;100785.50;;;21.08;59.80
75868;BME280;64515;51.446;7.578;2022-10-31T02:20:21;100778.66;;;21.03;59.90
75868;BME280;64515;51.446;7.578;2022-10-31T02:23:03;100780.28;;;21.05;59.87
75868;BME280;64515;51.446;7.578;2022-10-31T02:30:58;100771.34;;;21.03;59.92
75868;BME280;64515;51.446;7.578;2022-10-31T02:33:36;100781.25;;;21.04;59.92
75868;BME280;64515;51.446;7.578;2022-10-31T02:36:06;100777.56;;;21.05;59.92
75868;BME280;64515;51.446;7.578;2022-10-31T02:38:59;100767.66;;;21.04;59.84
75868;BME280;64515;51.446;7.578;2022-10-31T02:48:58;100751.75;;;20.98;59.90
75868;BME280;64515;51.446;7.578;2022-10-31T02:51:25;100755.25;;;21.00;59.94
75868;BME280;64515;51.446;7.578;2022-10-31T02:53:50;100757.19;;;20.98;59.83
75868;BME280;64515;51.446;7.578;2022-10-31T02:56:16;100770.91;;;20.96;60.01
75868;BME280;64515;51.446;7.578;2022-10-31T02:58:49;100778.94;;;20.98;60.01
75868;BME280;64515;51.446;7.578;2022-10-31T03:01:28;100769.81;;;20.99;59.91
75868;BME280;64515;51.446;7.578;2022-10-31T03:06:45;100773.09;;;21.04;59.84
75868;BME280;64515;51.446;7.578;2022-10-31T03:11:45;100778.72;;;21.01;59.81
75868;BME280;64515;51.446;7.578;2022-10-31T03:14:26;100776.91;;;21.02;59.80
75868;BME280;64515;51.446;7.578;2022-10-31T03:16:53;100796.78;;;21.02;59.86
75868;BME280;64515;51.446;7.578;2022-10-31T03:19:20;100792.53;;;20.98;59.96
75868;BME280;64515;51.446;7.578;2022-10-31T03:21:52;100800.69;;;20.98;59.77
75868;BME280;64515;51.446;7.578;2022-10-31T03:24:20;100806.31;;;20.95;60.00
75868;BME280;64515;51.446;7.578;2022-10-31T03:26:49;100805.34;;;20.96;60.13
75868;BME280;64515;51.446;7.578;2022-10-31T03:29:16;100802.63;;;20.96;60.04
75868;BME280;64515;51.446;7.578;2022-10-31T03:31:48;100798.94;;;20.97;59.94
75868;BME280;64515;51.446;7.578;2022-10-31T03:34:16;100803.41;;;20.98;59.90
75868;BME280;64515;51.446;7.578;2022-10-31T03:36:43;100811.56;;;20.98;59.89
75868;BME280;64515;51.446;7.578;2022-10-31T03:39:11;100817.84;;;20.98;59.93
75868;BME280;64515;51.446;7.578;2022-10-31T03:41:49;100814.16;;;20.99;59.82
75868;BME280;64515;51.446;7.578;2022-10-31T03:44:19;100802.44;;;20.99;59.85
75868;BME280;64515;51.446;7.578;2022-10-31T03:46:45;100805.16;;;20.99;59.86
75868;BME280;64515;51.446;7.578;2022-10-31T03:49:10;100805.16;;;20.99;59.91
75868;BME280;64515;51.446;7.578;2022-10-31T03:54:03;100814.38;;;20.96;59.95
75868;BME280;64515;51.446;7.578;2022-10-31T03:56:39;100807.09;;;20.97;59.93
75868;BME280;64515;51.446;7.578;2022-10-31T04:01:45;100804.38;;;20.97;60.02
75868;BME280;64515;51.446;7.578;2022-10-31T04:04:12;100811.56;;;20.98;60.01
75868;BME280;64515;51.446;7.578;2022-10-31T04:06:38;100807.88;;;20.99;59.88
75868;BME280;64515;51.446;7.578;2022-10-31T04:09:04;100806.81;;;21.02;59.75
75868;BME280;64515;51.446;7.578;2022-10-31T04:11:31;100806.31;;;20.95;60.02
75868;BME280;64515;51.446;7.578;2022-10-31T04:13:58;100806.31;;;20.95;60.01
75868;BME280;64515;51.446;7.578;2022-10-31T04:16:25;100805.44;;;20.94;59.95
75868;BME280;64515;51.446;7.578;2022-10-31T04:18:51;100797.19;;;20.96;59.92
75868;BME280;64515;51.446;7.578;2022-10-31T04:21:16;100788.25;;;20.94;59.97
75868;BME280;64515;51.446;7.578;2022-10-31T04:23:41;100788.06;;;20.97;59.81
75868;BME280;64515;51.446;7.578;2022-10-31T04:26:07;100786.31;;;20.96;59.73
75868;BME280;64515;51.446;7.578;2022-10-31T04:28:33;100793.50;;;20.97;59.79
75868;BME280;64515;51.446;7.578;2022-10-31T04:30:58;100786.31;;;20.96;59.82
75868;BME280;64515;51.446;7.578;2022-10-31T04:33:23;100788.06;;;20.97;59.72
75868;BME280;64515;51.446;7.578;2022-10-31T04:35:49;100787.22;;;20.96;59.87
75868;BME280;64515;51.446;7.578;2022-10-31T04:38:14;100780.88;;;20.96;59.85
75868;BME280;64515;51.446;7.578;2022-10-31T04:40:39;100780.09;;;20.94;59.80
75868;BME280;64515;51.446;7.578;2022-10-31T04:43:04;100776.41;;;20.95;59.92
75868;BME280;64515;51.446;7.578;2022-10-31T04:45:30;100769.16;;;20.95;59.72
75868;BME280;64515;51.446;7.578;2022-10-31T04:47:55;100768.25;;;20.95;59.92
75868;BME280;64515;51.446;7.578;2022-10-31T04:50:20;100764.56;;;20.96;59.73
75868;BME280;64515;51.446;7.578;2022-10-31T04:52:45;100764.56;;;20.96;59.71
75868;BME280;64515;51.446;7.578;2022-10-31T04:55:11;100762.53;;;20.99;59.67
75868;BME280;64515;51.446;7.578;2022-10-31T04:57:43;100773.50;;;20.98;59.87
75868;BME280;64515;51.446;7.578;2022-10-31T05:00:10;100778.06;;;20.97;59.65
75868;BME280;64515;51.446;7.578;2022-10-31T05:02:42;100780.69;;;20.99;59.73
75868;BME280;64515;51.446;7.578;2022-10-31T05:05:07;100773.50;;;20.98;59.71
75868;BME280;64515;51.446;7.578;2022-10-31T05:07:33;100775.44;;;20.96;59.71
75868;BME280;64515;51.446;7.578;2022-10-31T05:09:58;100768.25;;;20.95;59.84
75868;BME280;64515;51.446;7.578;2022-10-31T05:12:23;100761.97;;;20.94;59.95
75868;BME280;64515;51.446;7.578;2022-10-31T05:14:48;100755.44;;;20.97;59.82
75868;BME280;64515;51.446;7.578;2022-10-31T05:17:13;100754.06;;;21.04;59.58
75868;BME280;64515;51.446;7.578;2022-10-31T05:19:38;100745.50;;;21.10;59.35
75868;BME280;64515;51.446;7.578;2022-10-31T05:22:03;100756.09;;;21.15;59.22
75868;BME280;64515;51.446;7.578;2022-10-31T05:24:29;100759.66;;;21.15;59.27
75868;BME280;64515;51.446;7.578;2022-10-31T05:26:54;100758.69;;;21.17;59.19
75868;BME280;64515;51.446;7.578;2022-10-31T05:29:19;100759.47;;;21.19;59.10
75868;BME280;64515;51.446;7.578;2022-10-31T05:31:44;100759.47;;;21.19;59.23
75868;BME280;64515;51.446;7.578;2022-10-31T05:34:09;100756.75;;;21.19;59.30
75868;BME280;64515;51.446;7.578;2022-10-31T05:36:34;100747.63;;;21.20;59.16
75868;BME280;64515;51.446;7.578;2022-10-31T05:39:01;100737.72;;;21.19;59.32
75868;BME280;64515;51.446;7.578;2022-10-31T05:41:26;100746.66;;;21.21;59.24
75868;BME280;64515;51.446;7.578;2022-10-31T05:43:51;100739.25;;;21.23;59.26
75868;BME280;64515;51.446;7.578;2022-10-31T05:46:16;100748.19;;;21.25;59.15
75868;BME280;64515;51.446;7.578;2022-10-31T05:48:43;100743.63;;;21.25;59.30
75868;BME280;64515;51.446;7.578;2022-10-31T05:51:08;100743.44;;;21.28;59.07
75868;BME280;64515;51.446;7.578;2022-10-31T05:53:33;100733.41;;;21.29;59.06
75868;BME280;64515;51.446;7.578;2022-10-31T05:55:58;100737.88;;;21.30;58.98
75868;BME280;64515;51.446;7.578;2022-10-31T05:58:23;100738.66;;;21.32;58.98
75868;BME280;64515;51.446;7.578;2022-10-31T06:00:49;100727.78;;;21.32;58.97
75868;BME280;64515;51.446;7.578;2022-10-31T06:03:14;100733.03;;;21.35;58.98
75868;BME280;64515;51.446;7.578;2022-10-31T06:05:40;100738.47;;;21.35;58.82
75868;BME280;64515;51.446;7.578;2022-10-31T06:08:05;100743.91;;;21.35;58.86
75868;BME280;64515;51.446;7.578;2022-10-31T06:10:30;100739.31;;;21.36;58.93
75868;BME280;64515;51.446;7.578;2022-10-31T06:12:56;100738.47;;;21.35;58.89
75868;BME280;64515;51.446;7.578;2022-10-31T06:15:21;100745.63;;;21.36;58.81
75868;BME280;64515;51.446;7.578;2022-10-31T06:17:47;100735.63;;;21.37;58.87
75868;BME280;64515;51.446;7.578;2022-10-31T06:20:12;100736.50;;;21.37;58.83
75868;BME280;64515;51.446;7.578;2022-10-31T06:22:37;100739.22;;;21.37;58.70
75868;BME280;64515;51.446;7.578;2022-10-31T06:25:02;100738.25;;;21.38;58.71
75868;BME280;64515;51.446;7.578;2022-10-31T06:27:27;100740.00;;;21.39;58.74
75868;BME280;64515;51.446;7.578;2022-10-31T06:29:52;100734.56;;;21.39;58.65
75868;BME280;64515;51.446;7.578;2022-10-31T06:32:18;100737.28;;;21.39;58.73
75868;BME280;64515;51.446;7.578;2022-10-31T06:34:43;100733.59;;;21.40;58.72
75868;BME280;64515;51.446;7.578;2022-10-31T06:37:09;100732.50;;;21.43;58.75
75868;BME280;64515;51.446;7.578;2022-10-31T06:39:34;100728.94;;;21.42;58.70
75868;BME280;64515;51.446;7.578;2022-10-31T06:42:00;100730.63;;;21.43;58.72
75868;BME280;64515;51.446;7.578;2022-10-31T06:44:25;100730.63;;;21.43;58.69
75868;BME280;64515;51.446;7.578;2022-10-31T06:46:51;100732.50;;;21.43;58.71
75868;BME280;64515;51.446;7.578;2022-10-31T06:49:16;100736.09;;;21.43;58.67
75868;BME280;64515;51.446;7.578;2022-10-31T06:51:41;100739.69;;;21.44;58.69
75868;BME280;64515;51.446;7.578;2022-10-31T06:54:06;100738.72;;;21.45;58.61
75868;BME280;64515;51.446;7.578;2022-10-31T06:56:31;100746.78;;;21.46;58.67
75868;BME280;64515;51.446;7.578;2022-10-31T06:58:57;100743.28;;;21.44;58.59
75868;BME280;64515;51.446;7.578;2022-10-31T07:01:22;100745.91;;;21.46;58.57
75868;BME280;64515;51.446;7.578;2022-10-31T07:03:47;100751.44;;;21.44;58.58
75868;BME280;64515;51.446;7.578;2022-10-31T07:06:12;100757.66;;;21.46;58.57
75868;BME280;64515;51.446;7.578;2022-10-31T07:08:37;100753.97;;;21.47;58.68
75868;BME280;64515;51.446;7.578;2022-10-31T07:11:02;100750.28;;;21.49;58.46
75868;BME280;64515;51.446;7.578;2022-10-31T07:13:28;100751.13;;;21.49;58.55
75868;BME280;64515;51.446;7.578;2022-10-31T07:15:54;100751.13;;;21.49;58.56
75868;BME280;64515;51.446;7.578;2022-10-31T07:18:19;100752.03;;;21.50;58.65
75868;BME280;64515;51.446;7.578;2022-10-31T07:20:44;100752.03;;;21.50;58.67
75868;BME280;64515;51.446;7.578;2022-10-31T07:23:10;100746.56;;;21.50;58.49
75868;BME280;64515;51.446;7.578;2022-10-31T07:25:35;100750.28;;;21.49;58.49
75868;BME280;64515;51.446;7.578;2022-10-31T07:28:01;100757.22;;;21.53;58.50
75868;BME280;64515;51.446;7.578;2022-10-31T07:30:26;100751.53;;;21.57;58.22
75868;BME280;64515;51.446;7.578;2022-10-31T07:32:51;100766.16;;;21.55;58.35
75868;BME280;64515;51.446;7.578;2022-10-31T07:35:20;100762.69;;;21.53;58.58
75868;BME280;64515;51.446;7.578;2022-10-31T07:37:46;100756.25;;;21.54;58.47
75868;BME280;64515;51.446;7.578;2022-10-31T07:40:11;100757.22;;;21.53;58.63
75868;BME280;64515;51.446;7.578;2022-10-31T07:42:37;100758.97;;;21.54;58.50
75868;BME280;64515;51.446;7.578;2022-10-31T07:45:07;100759.84;;;21.54;58.40
75868;BME280;64515;51.446;7.578;2022-10-31T07:47:39;100757.81;;;21.58;58.25
75868;BME280;64515;51.446;7.578;2022-10-31T07:50:05;100757.03;;;21.56;58.47
75868;BME280;64515;51.446;7.578;2022-10-31T07:52:30;100753.53;;;21.54;58.51
75868;BME280;64515;51.446;7.578;2022-10-31T07:54:55;100751.59;;;21.56;58.45
75868;BME280;64515;51.446;7.578;2022-10-31T07:57:20;100752.47;;;21.56;58.54
75868;BME280;64515;51.446;7.578;2022-10-31T07:59:45;100750.56;;;21.58;58.43
75868;BME280;64515;51.446;7.578;2022-10-31T08:02:10;100755.09;;;21.58;58.46
75868;BME280;64515;51.446;7.578;2022-10-31T08:04:36;100752.47;;;21.56;58.54
75868;BME280;64515;51.446;7.578;2022-10-31T08:07:01;100744.41;;;21.55;58.46
75868;BME280;64515;51.446;7.578;2022-10-31T08:09:27;100742.56;;;21.55;58.42
75868;BME280;64515;51.446;7.578;2022-10-31T08:11:53;100739.81;;;21.55;58.52
75868;BME280;64515;51.446;7.578;2022-10-31T08:14:18;100744.41;;;21.55;58.41
75868;BME280;64515;51.446;7.578;2022-10-31T08:16:43;100744.41;;;21.55;58.64
75868;BME280;64515;51.446;7.578;2022-10-31T08:19:08;100739.94;;;21.54;58.53
75868;BME280;64515;51.446;7.578;2022-10-31T08:21:34;100737.06;;;21.57;58.54
75868;BME280;64515;51.446;7.578;2022-10-31T08:23:59;100741.56;;;21.56;58.39
75868;BME280;64515;51.446;7.578;2022-10-31T08:26:24;100742.66;;;21.54;58.83
75868;BME280;64515;51.446;7.578;2022-10-31T08:28:49;100733.66;;;21.53;58.68
75868;BME280;64515;51.446;7.578;2022-10-31T08:31:15;100735.47;;;21.53;58.66
75868;BME280;64515;51.446;7.578;2022-10-31T08:33:40;100741.56;;;21.56;58.64
75868;BME280;64515;51.446;7.578;2022-10-31T08:36:05;100744.41;;;21.55;58.51
75868;BME280;64515;51.446;7.578;2022-10-31T08:38:30;100748.09;;;21.54;58.47
75868;BME280;64515;51.446;7.578;2022-10-31T08:40:55;100739.94;;;21.54;58.71
75868;BME280;64515;51.446;7.578;2022-10-31T08:43:22;100742.56;;;21.55;58.26
75868;BME280;64515;51.446;7.578;2022-10-31T08:45:48;100741.56;;;21.56;58.38
75868;BME280;64515;51.446;7.578;2022-10-31T08:48:14;100733.41;;;21.56;58.29
75868;BME280;64515;51.446;7.578;2022-10-31T08:50:39;100737.06;;;21.57;58.36
75868;BME280;64515;51.446;7.578;2022-10-31T08:53:06;100733.34;;;21.58;58.22
75868;BME280;64515;51.446;7.578;2022-10-31T08:55:32;100723.47;;;21.57;58.46
75868;BME280;64515;51.446;7.578;2022-10-31T08:57:58;100726.19;;;21.57;58.46
75868;BME280;64515;51.446;7.578;2022-10-31T09:00:23;100720.75;;;21.57;58.49
75868;BME280;64515;51.446;7.578;2022-10-31T09:02:54;100725.16;;;21.58;58.36
75868;BME280;64515;51.446;7.578;2022-10-31T09:05:19;100729.66;;;21.59;58.09
75868;BME280;64515;51.446;7.578;2022-10-31T09:07:44;100733.34;;;21.58;58.37
75868;BME280;64515;51.446;7.578;2022-10-31T09:10:09;100727.03;;;21.57;58.40
75868;BME280;64515;51.446;7.578;2022-10-31T09:12:35;100728.91;;;21.57;58.35
75868;BME280;64515;51.446;7.578;2022-10-31T09:15:00;100729.84;;;21.56;58.38
75868;BME280;64515;51.446;7.578;2022-10-31T09:17:26;100729.06;;;21.54;58.47
75868;BME280;64515;51.446;7.578;2022-10-31T09:19:51;100724.41;;;21.56;58.36
75868;BME280;64515;51.446;7.578;2022-10-31T09:22:17;100725.38;;;21.55;58.43
75868;BME280;64515;51.446;7.578;2022-10-31T09:24:42;100722.44;;;21.58;58.28
75868;BME280;64515;51.446;7.578;2022-10-31T09:27:07;100719.72;;;21.58;58.28
75868;BME280;64515;51.446;7.578;2022-10-31T09:29:33;100719.94;;;21.55;58.46
75868;BME280;64515;51.446;7.578;2022-10-31T09:31:59;100722.44;;;21.58;58.25
75868;BME280;64515;51.446;7.578;2022-10-31T09:34:24;100718.97;;;21.56;58.50
75868;BME280;64515;51.446;7.578;2022-10-31T09:36:49;100717.22;;;21.55;58.50
75868;BME280;64515;51.446;7.578;2022-10-31T09:39:14;100717.22;;;21.55;58.42
75868;BME280;64515;51.446;7.578;2022-10-31T09:44:26;100709.16;;;21.53;58.50
75868;BME280;64515;51.446;7.578;2022-10-31T09:51:58;100697.09;;;21.57;58.23
75868;BME280;64515;51.446;7.578;2022-10-31T09:54:32;100695.44;;;21.55;58.55
75868;BME280;64515;51.446;7.578;2022-10-31T09:56:58;100691.56;;;21.59;58.35
75868;BME280;64515;51.446;7.578;2022-10-31T09:59:34;100689.81;;;21.58;58.43
75868;BME280;64515;51.446;7.578;2022-10-31T10:02:10;100695.25;;;21.58;58.19
75868;BME280;64515;51.446;7.578;2022-10-31T10:04:43;100677.22;;;21.57;58.40
75868;BME280;64515;51.446;7.578;2022-10-31T10:09:40;100685.25;;;21.58;58.27
75868;BME280;64515;51.446;7.578;2022-10-31T10:12:13;100691.56;;;21.59;58.15
75868;BME280;64515;51.446;7.578;2022-10-31T10:15:00;100688.09;;;21.57;58.37
75868;BME280;64515;51.446;7.578;2022-10-31T10:25:15;100669.97;;;21.56;58.43
75868;BME280;64515;51.446;7.578;2022-10-31T10:30:39;100667.47;;;21.53;58.56
75868;BME280;64515;51.446;7.578;2022-10-31T10:33:14;100665.63;;;21.53;58.44
75868;BME280;64515;51.446;7.578;2022-10-31T10:35:49;100667.34;;;21.54;58.45
75868;BME280;64515;51.446;7.578;2022-10-31T10:38:17;100659.97;;;21.56;58.37
75868;BME280;64515;51.446;7.578;2022-10-31T10:40:44;100653.66;;;21.56;58.41
75868;BME280;64515;51.446;7.578;2022-10-31T10:45:49;100657.06;;;21.59;58.21
75868;BME280;64515;51.446;7.578;2022-10-31T10:51:02;100647.34;;;21.55;58.44
75868;BME280;64515;51.446;7.578;2022-10-31T10:53:39;100640.84;;;21.58;58.26
75868;BME280;64515;51.446;7.578;2022-10-31T10:56:30;100639.88;;;21.59;58.10
75868;BME280;64515;51.446;7.578;2022-10-31T10:58:57;100631.50;;;21.62;58.15
75868;BME280;64515;51.446;7.578;2022-10-31T11:01:22;100625.94;;;21.63;58.00
75868;BME280;64515;51.446;7.578;2022-10-31T11:03:48;100617.13;;;21.60;58.09
75868;BME280;64515;51.446;7.578;2022-10-31T11:06:21;100618.09;;;21.59;58.22
75868;BME280;64515;51.446;7.578;2022-10-31T11:08:50;100615.94;;;21.64;57.93
75868;BME280;64515;51.446;7.578;2022-10-31T11:13:51;100609.75;;;21.62;58.08
75868;BME280;64515;51.446;7.578;2022-10-31T11:16:29;100600.81;;;21.60;58.20
75868;BME280;64515;51.446;7.578;2022-10-31T11:19:05;100597.31;;;21.58;58.16
75868;BME280;64515;51.446;7.578;2022-10-31T11:21:31;100589.72;;;21.63;58.07
75868;BME280;64515;51.446;7.578;2022-10-31T11:24:03;100594.72;;;21.69;57.73
75868;BME280;64515;51.446;7.578;2022-10-31T11:26:28;100581.88;;;21.71;57.92
75868;BME280;64515;51.446;7.578;2022-10-31T11:28:57;100585.59;;;21.70;57.82
75868;BME280;64515;51.446;7.578;2022-10-31T11:31:23;100580.59;;;21.64;58.09
75868;BME280;64515;51.446;7.578;2022-10-31T11:33:50;100573.41;;;21.63;58.16
75868;BME280;64515;51.446;7.578;2022-10-31T11:36:29;100581.97;;;21.70;57.91
75868;BME280;64515;51.446;7.578;2022-10-31T11:38:55;100560.13;;;21.71;57.82
75868;BME280;64515;51.446;7.578;2022-10-31T11:43:54;100546.59;;;21.70;57.97
75868;BME280;64515;51.446;7.578;2022-10-31T11:46:30;100558.25;;;21.72;58.09
75868;BME280;64515;51.446;7.578;2022-10-31T11:48:57;100552.03;;;21.70;57.92
75868;BME280;64515;51.446;7.578;2022-10-31T11:51:24;100544.53;;;21.73;57.76
75868;BME280;64515;51.446;7.578;2022-10-31T11:53:51;100535.50;;;21.73;57.89
75868;BME280;64515;51.446;7.578;2022-10-31T11:56:17;100524.75;;;21.71;57.90
75868;BME280;64515;51.446;7.578;2022-10-31T11:58:42;100523.97;;;21.69;58.02
75868;BME280;64515;51.446;7.578;2022-10-31T12:01:21;100517.25;;;21.62;58.15
75868;BME280;64515;51.446;7.578;2022-10-31T12:06:34;100520.50;;;21.67;58.11
75868;BME280;64515;51.446;7.578;2022-10-31T12:09:00;100512.13;;;21.70;57.89
75868;BME280;64515;51.446;7.578;2022-10-31T12:16:22;100504.50;;;21.75;57.83
75868;BME280;64515;51.446;7.578;2022-10-31T12:19:05;100501.56;;;21.78;57.61
75868;BME280;64515;51.446;7.578;2022-10-31T12:21:40;100496.13;;;21.78;57.74
75868;BME280;64515;51.446;7.578;2022-10-31T12:27:10;100498.06;;;21.76;57.66
75868;BME280;64515;51.446;7.578;2022-10-31T12:29:33;100482.59;;;21.77;57.71
75868;BME280;64515;51.446;7.578;2022-10-31T12:54:52;100431.44;;;21.82;57.46
75868;BME280;64515;51.446;7.578;2022-10-31T12:59:48;100421.63;;;21.79;57.63
75868;BME280;64515;51.446;7.578;2022-10-31T13:07:41;100403.34;;;21.82;57.67
75868;BME280;64515;51.446;7.578;2022-10-31T13:10:16;100402.50;;;21.81;57.72
75868;BME280;64515;51.446;7.578;2022-10-31T13:12:42;100405.94;;;21.83;57.61
75868;BME280;64515;51.446;7.578;2022-10-31T13:15:12;100403.13;;;21.85;57.49
75868;BME280;64515;51.446;7.578;2022-10-31T13:17:42;100394.84;;;21.86;57.56
75868;BME280;64515;51.446;7.578;2022-10-31T13:20:22;100385.06;;;21.84;57.63
75868;BME280;64515;51.446;7.578;2022-10-31T13:22:50;100387.66;;;21.85;57.58
75868;BME280;64515;51.446;7.578;2022-10-31T13:25:18;100375.91;;;21.85;57.62
75868;BME280;64515;51.446;7.578;2022-10-31T13:27:45;100370.47;;;21.85;57.43
75868;BME280;64515;51.446;7.578;2022-10-31T13:32:43;100364.06;;;21.86;57.56
75868;BME280;64515;51.446;7.578;2022-10-31T13:35:13;100357.84;;;21.84;57.73
75868;BME280;64515;51.446;7.578;2022-10-31T13:37:41;100352.41;;;21.84;57.70
75868;BME280;64515;51.446;7.578;2022-10-31T13:40:22;100353.50;;;21.81;57.64
75868;BME280;64515;51.446;7.578;2022-10-31T13:42:54;100359.81;;;21.82;57.59
75868;BME280;64515;51.446;7.578;2022-10-31T13:45:23;100350.03;;;21.79;57.75
75868;BME280;64515;51.446;7.578;2022-10-31T13:48:17;100348.16;;;21.79;57.66
75868;BME280;64515;51.446;7.578;2022-10-31T13:50:43;100339.25;;;21.77;57.98
75868;BME280;64515;51.446;7.578;2022-10-31T13:53:56;100329.34;;;21.76;57.82
75868;BME280;64515;51.446;7.578;2022-10-31T13:58:34;100330.56;;;21.72;57.95
75868;BME280;64515;51.446;7.578;2022-10-31T14:01:02;100325.13;;;21.72;57.95
75868;BME280;64515;51.446;7.578;2022-10-31T14:03:30;100314.13;;;21.74;57.82
75868;BME280;64515;51.446;7.578;2022-10-31T14:05:58;100308.69;;;21.74;57.87
75868;BME280;64515;51.446;7.578;2022-10-31T14:08:23;100302.38;;;21.73;57.89
75868;BME280;64515;51.446;7.578;2022-10-31T14:10:49;100295.94;;;21.74;57.98
75868;BME280;64515;51.446;7.578;2022-10-31T14:13:32;100291.47;;;21.73;57.93
75868;BME280;64515;51.446;7.578;2022-10-31T14:16:03;100292.38;;;21.74;58.09
75868;BME280;64515;51.446;7.578;2022-10-31T14:18:33;100291.47;;;21.73;58.07
75868;BME280;64515;51.446;7.578;2022-10-31T14:20:59;100287.03;;;21.72;57.95
75868;BME280;64515;51.446;7.578;2022-10-31T14:26:19;100276.03;;;21.74;58.05
75868;BME280;64515;51.446;7.578;2022-10-31T14:28:44;100261.56;;;21.73;58.06
75868;BME280;64515;51.446;7.578;2022-10-31T14:33:54;100271.34;;;21.76;58.03
75868;BME280;64515;51.446;7.578;2022-10-31T14:36:29;100274.94;;;21.76;58.01
75868;BME280;64515;51.446;7.578;2022-10-31T14:41:28;100277.53;;;21.78;57.98